LPA735 UGTB-EFHK
Flight info
| Callsign | LPA735 |
|---|---|
| Flight time | N/A |
| Altitude | 38000 |
| Route | DF N11 BARUS N37 SARPI UM10 GOKPA/N0476F400 UL746 ODERO T86 MATEL T746 ARGES DCT KARIL DCT KENIN DCT LENOV N133 KOTEK/N0482F410 M866 GERVI M857 SUWGI DCT VESAM DCT TICWA DCT KEMET DCT LARTI DCT DIVAM |
| Aircraft | B772/H-SDE2E3FGHIJ5LORVWXY/LB1D1 |
Departure
| Time | N/A |
|---|---|
| Airport | Tbilisi International Airport (UGTB) |
Arrival
| Time | 2026-04-26 16:09 |
|---|---|
| Airport | Helsinki Vantaa Airport (EFHK) |
| Time | Latitude | Longitude | Altitude | Speed | Heading |
|---|---|---|---|---|---|
| 2026-04-26 16:08 | 60.31744 | 24.97765 | 197 ft | 48 kts | 333° |
| 2026-04-26 16:09 | 60.32036 | 24.97467 | 197 ft | 39 kts | 333° |
| 2026-04-26 16:09 | 60.32252 | 24.97245 | 197 ft | 25 kts | 333° |
| 2026-04-26 16:09 | 60.32355 | 24.97136 | 197 ft | 6 kts | 329° |
| 2026-04-26 16:09 | 60.32386 | 24.97061 | 197 ft | 8 kts | 285° |
| 2026-04-26 16:10 | 60.32378 | 24.96957 | 197 ft | 8 kts | 238° |
| 2026-04-26 16:10 | 60.32349 | 24.96885 | 197 ft | 5 kts | 229° |
| 2026-04-26 16:10 | 60.32337 | 24.96859 | 197 ft | 0 kts | 228° |
| 2026-04-26 16:10 | 60.32329 | 24.96842 | 197 ft | 3 kts | 228° |
| 2026-04-26 16:11 | 60.32320 | 24.96822 | 197 ft | 1 kts | 229° |
| 2026-04-26 16:11 | 60.32311 | 24.96801 | 197 ft | 0 kts | 229° |
| 2026-04-26 16:11 | 60.32303 | 24.96782 | 197 ft | 2 kts | 229° |
| 2026-04-26 16:11 | 60.32290 | 24.96755 | 197 ft | 3 kts | 229° |
| 2026-04-26 16:12 | 60.32265 | 24.96698 | 197 ft | 8 kts | 229° |
| 2026-04-26 16:12 | 60.32207 | 24.96569 | 197 ft | 15 kts | 227° |
| 2026-04-26 16:12 | 60.32057 | 24.96239 | 197 ft | 18 kts | 228° |
| 2026-04-26 16:13 | 60.31967 | 24.96042 | 197 ft | 19 kts | 226° |
| 2026-04-26 16:13 | 60.31881 | 24.95854 | 197 ft | 20 kts | 227° |
| 2026-04-26 16:13 | 60.31784 | 24.95637 | 197 ft | 21 kts | 227° |
| 2026-04-26 16:13 | 60.31696 | 24.95446 | 196 ft | 18 kts | 228° |
| 2026-04-26 16:14 | 60.31612 | 24.95258 | 197 ft | 18 kts | 225° |
| 2026-04-26 16:14 | 60.31543 | 24.95109 | 197 ft | 11 kts | 227° |
| 2026-04-26 16:14 | 60.31472 | 24.94976 | 196 ft | 6 kts | 188° |
| 2026-04-26 16:15 | 60.31426 | 24.95023 | 197 ft | 8 kts | 135° |
| 2026-04-26 16:15 | 60.31383 | 24.95110 | 197 ft | 11 kts | 136° |
| 2026-04-26 16:15 | 60.31332 | 24.95206 | 197 ft | 9 kts | 137° |
| 2026-04-26 16:16 | 60.31239 | 24.95380 | 197 ft | 8 kts | 137° |
| 2026-04-26 16:16 | 60.31203 | 24.95446 | 197 ft | 5 kts | 137° |
| 2026-04-26 16:16 | 60.31176 | 24.95497 | 197 ft | 6 kts | 134° |
| 2026-04-26 16:16 | 60.31163 | 24.95551 | 197 ft | 5 kts | 99° |
| 2026-04-26 16:17 | 60.31175 | 24.95616 | 197 ft | 5 kts | 54° |
| 2026-04-26 16:17 | 60.31205 | 24.95692 | 197 ft | 7 kts | 46° |
| 2026-04-26 16:17 | 60.31241 | 24.95769 | 197 ft | 8 kts | 48° |
| 2026-04-26 16:17 | 60.31278 | 24.95852 | 197 ft | 6 kts | 47° |
| 2026-04-26 16:18 | 60.31304 | 24.95908 | 197 ft | 4 kts | 47° |
| 2026-04-26 16:18 | 60.31321 | 24.95933 | 197 ft | 0 kts | 4° |
| 2026-04-26 16:19 | 60.31347 | 24.95908 | 197 ft | 3 kts | 329° |
| 2026-04-26 16:19 | 60.31363 | 24.95889 | 197 ft | 1 kts | 329° |
| 2026-04-26 16:19 | 60.31386 | 24.95860 | 197 ft | 0 kts | 328° |
| 2026-04-26 16:20 | 60.31390 | 24.95855 | 197 ft | 0 kts | 328° |